sensor_id;sensor_type;location;lat;lon;timestamp;P1;durP1;ratioP1;P2;durP2;ratioP2
72408;SDS011;60402;48.082;11.628;2022-07-23T00:01:50;8.85;;;4.47;;
72408;SDS011;60402;48.082;11.628;2022-07-23T00:04:15;8.27;;;4.53;;
72408;SDS011;60402;48.082;11.628;2022-07-23T00:06:40;7.15;;;3.97;;
72408;SDS011;60402;48.082;11.628;2022-07-23T00:09:06;7.47;;;4.50;;
72408;SDS011;60402;48.082;11.628;2022-07-23T00:11:31;7.63;;;4.10;;
72408;SDS011;60402;48.082;11.628;2022-07-23T00:13:56;7.68;;;4.57;;
72408;SDS011;60402;48.082;11.628;2022-07-23T00:16:22;7.80;;;4.30;;
72408;SDS011;60402;48.082;11.628;2022-07-23T00:18:48;7.68;;;4.25;;
72408;SDS011;60402;48.082;11.628;2022-07-23T00:21:13;7.88;;;4.47;;
72408;SDS011;60402;48.082;11.628;2022-07-23T00:23:38;7.65;;;4.25;;
72408;SDS011;60402;48.082;11.628;2022-07-23T00:26:04;8.20;;;4.63;;
72408;SDS011;60402;48.082;11.628;2022-07-23T00:28:29;8.20;;;4.00;;
72408;SDS011;60402;48.082;11.628;2022-07-23T00:30:54;7.25;;;4.20;;
72408;SDS011;60402;48.082;11.628;2022-07-23T00:33:20;7.15;;;4.30;;
72408;SDS011;60402;48.082;11.628;2022-07-23T00:35:45;7.40;;;4.00;;
72408;SDS011;60402;48.082;11.628;2022-07-23T00:38:10;8.57;;;4.57;;
72408;SDS011;60402;48.082;11.628;2022-07-23T00:40:36;7.20;;;4.20;;
72408;SDS011;60402;48.082;11.628;2022-07-23T00:43:03;7.10;;;3.85;;
72408;SDS011;60402;48.082;11.628;2022-07-23T00:45:29;7.60;;;4.97;;
72408;SDS011;60402;48.082;11.628;2022-07-23T00:47:55;7.43;;;4.13;;
72408;SDS011;60402;48.082;11.628;2022-07-23T00:50:20;7.50;;;4.00;;
72408;SDS011;60402;48.082;11.628;2022-07-23T00:52:45;6.80;;;4.07;;
72408;SDS011;60402;48.082;11.628;2022-07-23T00:55:12;7.35;;;4.00;;
72408;SDS011;60402;48.082;11.628;2022-07-23T00:57:38;8.15;;;3.92;;
72408;SDS011;60402;48.082;11.628;2022-07-23T01:00:05;7.28;;;4.50;;
72408;SDS011;60402;48.082;11.628;2022-07-23T01:02:33;8.27;;;4.20;;
72408;SDS011;60402;48.082;11.628;2022-07-23T01:04:58;7.53;;;3.97;;
72408;SDS011;60402;48.082;11.628;2022-07-23T01:07:24;7.60;;;4.63;;
72408;SDS011;60402;48.082;11.628;2022-07-23T01:09:50;7.18;;;4.05;;
72408;SDS011;60402;48.082;11.628;2022-07-23T01:12:16;7.45;;;4.30;;
72408;SDS011;60402;48.082;11.628;2022-07-23T01:14:41;6.88;;;3.85;;
72408;SDS011;60402;48.082;11.628;2022-07-23T01:17:07;7.10;;;4.40;;
72408;SDS011;60402;48.082;11.628;2022-07-23T01:19:32;7.20;;;4.15;;
72408;SDS011;60402;48.082;11.628;2022-07-23T01:21:58;9.45;;;4.85;;
72408;SDS011;60402;48.082;11.628;2022-07-23T01:24:27;8.65;;;5.00;;
72408;SDS011;60402;48.082;11.628;2022-07-23T01:26:52;11.00;;;5.30;;
72408;SDS011;60402;48.082;11.628;2022-07-23T01:29:17;10.82;;;5.28;;
72408;SDS011;60402;48.082;11.628;2022-07-23T01:31:44;9.77;;;4.78;;
72408;SDS011;60402;48.082;11.628;2022-07-23T01:34:09;12.27;;;5.45;;
72408;SDS011;60402;48.082;11.628;2022-07-23T01:36:36;9.10;;;4.22;;
72408;SDS011;60402;48.082;11.628;2022-07-23T01:39:02;8.95;;;5.18;;
72408;SDS011;60402;48.082;11.628;2022-07-23T01:41:29;6.63;;;4.05;;
72408;SDS011;60402;48.082;11.628;2022-07-23T01:43:54;7.20;;;3.10;;
72408;SDS011;60402;48.082;11.628;2022-07-23T01:46:20;7.13;;;2.85;;
72408;SDS011;60402;48.082;11.628;2022-07-23T01:48:45;7.60;;;3.05;;
72408;SDS011;60402;48.082;11.628;2022-07-23T01:51:11;9.18;;;3.17;;
72408;SDS011;60402;48.082;11.628;2022-07-23T01:53:36;6.15;;;3.30;;
72408;SDS011;60402;48.082;11.628;2022-07-23T01:56:01;6.45;;;3.50;;
72408;SDS011;60402;48.082;11.628;2022-07-23T01:58:28;6.75;;;3.50;;
72408;SDS011;60402;48.082;11.628;2022-07-23T02:00:54;6.53;;;3.47;;
72408;SDS011;60402;48.082;11.628;2022-07-23T02:03:20;6.68;;;3.45;;
72408;SDS011;60402;48.082;11.628;2022-07-23T02:05:46;6.82;;;3.70;;
72408;SDS011;60402;48.082;11.628;2022-07-23T02:08:11;6.65;;;3.83;;
72408;SDS011;60402;48.082;11.628;2022-07-23T02:10:37;7.03;;;3.53;;
72408;SDS011;60402;48.082;11.628;2022-07-23T02:13:02;8.55;;;3.67;;
72408;SDS011;60402;48.082;11.628;2022-07-23T02:15:28;7.00;;;3.40;;
72408;SDS011;60402;48.082;11.628;2022-07-23T02:17:53;7.70;;;3.55;;
72408;SDS011;60402;48.082;11.628;2022-07-23T02:20:19;6.38;;;3.50;;
72408;SDS011;60402;48.082;11.628;2022-07-23T02:22:45;7.07;;;3.17;;
72408;SDS011;60402;48.082;11.628;2022-07-23T02:25:10;6.35;;;3.17;;
72408;SDS011;60402;48.082;11.628;2022-07-23T02:27:36;7.82;;;3.65;;
72408;SDS011;60402;48.082;11.628;2022-07-23T02:30:02;6.63;;;2.90;;
72408;SDS011;60402;48.082;11.628;2022-07-23T02:32:27;6.38;;;2.95;;
72408;SDS011;60402;48.082;11.628;2022-07-23T02:34:53;4.90;;;2.55;;
72408;SDS011;60402;48.082;11.628;2022-07-23T02:37:18;5.00;;;2.53;;
72408;SDS011;60402;48.082;11.628;2022-07-23T02:39:44;4.32;;;2.17;;
72408;SDS011;60402;48.082;11.628;2022-07-23T02:42:09;5.15;;;2.00;;
72408;SDS011;60402;48.082;11.628;2022-07-23T02:44:35;4.55;;;2.20;;
72408;SDS011;60402;48.082;11.628;2022-07-23T02:47:00;3.25;;;1.92;;
72408;SDS011;60402;48.082;11.628;2022-07-23T02:49:26;5.20;;;2.00;;
72408;SDS011;60402;48.082;11.628;2022-07-23T02:51:51;4.40;;;1.90;;
72408;SDS011;60402;48.082;11.628;2022-07-23T02:54:17;3.65;;;1.90;;
72408;SDS011;60402;48.082;11.628;2022-07-23T02:56:43;5.07;;;1.98;;
72408;SDS011;60402;48.082;11.628;2022-07-23T02:59:08;6.85;;;2.60;;
72408;SDS011;60402;48.082;11.628;2022-07-23T03:01:34;5.75;;;2.53;;
72408;SDS011;60402;48.082;11.628;2022-07-23T03:03:59;6.00;;;2.70;;
72408;SDS011;60402;48.082;11.628;2022-07-23T03:06:25;7.97;;;3.00;;
72408;SDS011;60402;48.082;11.628;2022-07-23T03:08:50;6.72;;;3.13;;
72408;SDS011;60402;48.082;11.628;2022-07-23T03:11:15;5.75;;;2.80;;
72408;SDS011;60402;48.082;11.628;2022-07-23T03:13:41;6.07;;;3.00;;
72408;SDS011;60402;48.082;11.628;2022-07-23T03:16:06;8.02;;;3.08;;
72408;SDS011;60402;48.082;11.628;2022-07-23T03:18:32;7.47;;;3.40;;
72408;SDS011;60402;48.082;11.628;2022-07-23T03:20:58;6.70;;;3.10;;
72408;SDS011;60402;48.082;11.628;2022-07-23T03:23:24;6.72;;;3.35;;
72408;SDS011;60402;48.082;11.628;2022-07-23T03:25:49;6.57;;;3.78;;
72408;SDS011;60402;48.082;11.628;2022-07-23T03:28:15;5.68;;;3.13;;
72408;SDS011;60402;48.082;11.628;2022-07-23T03:30:42;7.25;;;3.20;;
72408;SDS011;60402;48.082;11.628;2022-07-23T03:33:10;6.43;;;3.20;;
72408;SDS011;60402;48.082;11.628;2022-07-23T03:35:35;5.60;;;3.00;;
72408;SDS011;60402;48.082;11.628;2022-07-23T03:38:00;6.45;;;3.20;;
72408;SDS011;60402;48.082;11.628;2022-07-23T03:40:26;6.10;;;3.17;;
72408;SDS011;60402;48.082;11.628;2022-07-23T03:42:51;5.95;;;3.60;;
72408;SDS011;60402;48.082;11.628;2022-07-23T03:45:16;6.60;;;3.25;;
72408;SDS011;60402;48.082;11.628;2022-07-23T03:47:42;6.28;;;3.17;;
72408;SDS011;60402;48.082;11.628;2022-07-23T03:50:08;5.72;;;2.88;;
72408;SDS011;60402;48.082;11.628;2022-07-23T03:52:34;6.60;;;3.40;;
72408;SDS011;60402;48.082;11.628;2022-07-23T03:55:00;8.05;;;3.83;;
72408;SDS011;60402;48.082;11.628;2022-07-23T03:57:26;7.57;;;4.05;;
72408;SDS011;60402;48.082;11.628;2022-07-23T03:59:51;7.70;;;4.05;;
72408;SDS011;60402;48.082;11.628;2022-07-23T04:02:16;7.65;;;3.75;;
72408;SDS011;60402;48.082;11.628;2022-07-23T04:04:42;6.57;;;3.65;;
72408;SDS011;60402;48.082;11.628;2022-07-23T04:07:07;7.22;;;3.80;;
72408;SDS011;60402;48.082;11.628;2022-07-23T04:09:33;7.30;;;4.03;;
72408;SDS011;60402;48.082;11.628;2022-07-23T04:11:58;7.50;;;4.15;;
72408;SDS011;60402;48.082;11.628;2022-07-23T04:14:24;6.43;;;3.65;;
72408;SDS011;60402;48.082;11.628;2022-07-23T04:16:49;8.70;;;4.03;;
72408;SDS011;60402;48.082;11.628;2022-07-23T04:19:14;7.15;;;3.60;;
72408;SDS011;60402;48.082;11.628;2022-07-23T04:21:40;6.47;;;3.42;;
72408;SDS011;60402;48.082;11.628;2022-07-23T04:24:05;7.00;;;3.67;;
72408;SDS011;60402;48.082;11.628;2022-07-23T04:26:30;6.63;;;3.42;;
72408;SDS011;60402;48.082;11.628;2022-07-23T04:28:56;9.40;;;3.90;;
72408;SDS011;60402;48.082;11.628;2022-07-23T04:31:21;6.00;;;3.60;;
72408;SDS011;60402;48.082;11.628;2022-07-23T04:33:46;7.68;;;3.75;;
72408;SDS011;60402;48.082;11.628;2022-07-23T04:36:12;7.63;;;4.03;;
72408;SDS011;60402;48.082;11.628;2022-07-23T04:38:37;7.30;;;3.88;;
72408;SDS011;60402;48.082;11.628;2022-07-23T04:41:02;8.00;;;3.78;;
72408;SDS011;60402;48.082;11.628;2022-07-23T04:43:28;7.63;;;3.90;;
72408;SDS011;60402;48.082;11.628;2022-07-23T04:45:53;7.35;;;3.88;;
72408;SDS011;60402;48.082;11.628;2022-07-23T04:48:19;6.63;;;3.80;;
72408;SDS011;60402;48.082;11.628;2022-07-23T04:50:44;7.93;;;4.40;;
72408;SDS011;60402;48.082;11.628;2022-07-23T04:53:09;6.95;;;3.75;;
72408;SDS011;60402;48.082;11.628;2022-07-23T04:55:35;7.20;;;3.63;;
72408;SDS011;60402;48.082;11.628;2022-07-23T04:58:00;7.43;;;3.53;;
72408;SDS011;60402;48.082;11.628;2022-07-23T05:00:25;7.17;;;3.70;;
72408;SDS011;60402;48.082;11.628;2022-07-23T05:02:50;7.20;;;3.88;;
72408;SDS011;60402;48.082;11.628;2022-07-23T05:05:16;7.35;;;3.67;;
72408;SDS011;60402;48.082;11.628;2022-07-23T05:07:41;6.32;;;3.45;;
72408;SDS011;60402;48.082;11.628;2022-07-23T05:10:07;7.53;;;3.45;;
72408;SDS011;60402;48.082;11.628;2022-07-23T05:12:32;6.53;;;3.88;;
72408;SDS011;60402;48.082;11.628;2022-07-23T05:14:58;7.97;;;4.13;;
72408;SDS011;60402;48.082;11.628;2022-07-23T05:17:23;7.07;;;3.90;;
72408;SDS011;60402;48.082;11.628;2022-07-23T05:19:48;7.95;;;3.95;;
72408;SDS011;60402;48.082;11.628;2022-07-23T05:22:14;8.02;;;3.95;;
72408;SDS011;60402;48.082;11.628;2022-07-23T05:24:39;7.00;;;3.90;;
72408;SDS011;60402;48.082;11.628;2022-07-23T05:27:04;7.15;;;3.92;;
72408;SDS011;60402;48.082;11.628;2022-07-23T05:29:30;7.35;;;4.05;;
72408;SDS011;60402;48.082;11.628;2022-07-23T05:31:55;8.00;;;4.65;;
72408;SDS011;60402;48.082;11.628;2022-07-23T05:34:20;7.05;;;4.20;;
72408;SDS011;60402;48.082;11.628;2022-07-23T05:36:46;6.57;;;3.95;;
72408;SDS011;60402;48.082;11.628;2022-07-23T05:39:11;6.72;;;3.90;;
72408;SDS011;60402;48.082;11.628;2022-07-23T05:41:36;7.78;;;4.35;;
72408;SDS011;60402;48.082;11.628;2022-07-23T05:44:02;8.32;;;4.25;;
72408;SDS011;60402;48.082;11.628;2022-07-23T05:46:27;7.63;;;4.45;;
72408;SDS011;60402;48.082;11.628;2022-07-23T05:48:52;8.93;;;4.43;;
72408;SDS011;60402;48.082;11.628;2022-07-23T05:51:21;7.38;;;4.43;;
72408;SDS011;60402;48.082;11.628;2022-07-23T05:53:48;9.27;;;4.90;;
72408;SDS011;60402;48.082;11.628;2022-07-23T05:56:13;8.00;;;4.70;;
72408;SDS011;60402;48.082;11.628;2022-07-23T05:58:39;8.70;;;4.65;;
72408;SDS011;60402;48.082;11.628;2022-07-23T06:01:04;8.20;;;4.80;;
72408;SDS011;60402;48.082;11.628;2022-07-23T06:03:30;7.35;;;4.47;;
72408;SDS011;60402;48.082;11.628;2022-07-23T06:05:55;7.35;;;4.05;;
72408;SDS011;60402;48.082;11.628;2022-07-23T06:08:20;7.53;;;4.72;;
72408;SDS011;60402;48.082;11.628;2022-07-23T06:10:46;7.18;;;4.40;;
72408;SDS011;60402;48.082;11.628;2022-07-23T06:13:11;7.38;;;4.03;;
72408;SDS011;60402;48.082;11.628;2022-07-23T06:15:36;9.77;;;4.85;;
72408;SDS011;60402;48.082;11.628;2022-07-23T06:18:02;8.90;;;4.50;;
72408;SDS011;60402;48.082;11.628;2022-07-23T06:20:27;9.35;;;4.82;;
72408;SDS011;60402;48.082;11.628;2022-07-23T06:22:53;11.93;;;5.20;;
72408;SDS011;60402;48.082;11.628;2022-07-23T06:25:18;8.65;;;4.65;;
72408;SDS011;60402;48.082;11.628;2022-07-23T06:27:45;8.40;;;4.80;;
72408;SDS011;60402;48.082;11.628;2022-07-23T06:30:11;9.23;;;4.90;;
72408;SDS011;60402;48.082;11.628;2022-07-23T06:32:37;8.00;;;4.88;;
72408;SDS011;60402;48.082;11.628;2022-07-23T06:35:02;8.30;;;4.90;;
72408;SDS011;60402;48.082;11.628;2022-07-23T06:37:28;9.23;;;5.30;;
72408;SDS011;60402;48.082;11.628;2022-07-23T06:39:53;9.07;;;4.83;;
72408;SDS011;60402;48.082;11.628;2022-07-23T06:42:18;8.27;;;5.00;;
72408;SDS011;60402;48.082;11.628;2022-07-23T06:44:44;9.55;;;4.75;;
72408;SDS011;60402;48.082;11.628;2022-07-23T06:47:09;10.38;;;5.07;;
72408;SDS011;60402;48.082;11.628;2022-07-23T06:49:34;9.02;;;4.80;;
72408;SDS011;60402;48.082;11.628;2022-07-23T06:52:00;8.55;;;4.63;;
72408;SDS011;60402;48.082;11.628;2022-07-23T06:54:25;8.32;;;4.55;;
72408;SDS011;60402;48.082;11.628;2022-07-23T06:56:50;9.07;;;4.65;;
72408;SDS011;60402;48.082;11.628;2022-07-23T06:59:16;8.93;;;4.75;;
72408;SDS011;60402;48.082;11.628;2022-07-23T07:01:41;9.43;;;4.38;;
72408;SDS011;60402;48.082;11.628;2022-07-23T07:04:06;7.75;;;4.63;;
72408;SDS011;60402;48.082;11.628;2022-07-23T07:06:32;7.82;;;4.55;;
72408;SDS011;60402;48.082;11.628;2022-07-23T07:08:57;7.95;;;4.43;;
72408;SDS011;60402;48.082;11.628;2022-07-23T07:11:22;7.25;;;4.10;;
72408;SDS011;60402;48.082;11.628;2022-07-23T07:13:49;6.47;;;3.85;;
72408;SDS011;60402;48.082;11.628;2022-07-23T07:16:14;7.30;;;4.50;;
72408;SDS011;60402;48.082;11.628;2022-07-23T07:18:40;9.02;;;4.45;;
72408;SDS011;60402;48.082;11.628;2022-07-23T07:21:05;7.72;;;4.60;;
72408;SDS011;60402;48.082;11.628;2022-07-23T07:23:30;7.47;;;4.28;;
72408;SDS011;60402;48.082;11.628;2022-07-23T07:25:56;8.00;;;4.20;;
72408;SDS011;60402;48.082;11.628;2022-07-23T07:28:22;7.40;;;4.00;;
72408;SDS011;60402;48.082;11.628;2022-07-23T07:30:47;7.63;;;4.75;;
72408;SDS011;60402;48.082;11.628;2022-07-23T07:33:13;8.07;;;4.70;;
72408;SDS011;60402;48.082;11.628;2022-07-23T07:35:38;7.38;;;4.20;;
72408;SDS011;60402;48.082;11.628;2022-07-23T07:38:03;8.13;;;4.50;;
72408;SDS011;60402;48.082;11.628;2022-07-23T07:40:29;7.45;;;4.40;;
72408;SDS011;60402;48.082;11.628;2022-07-23T07:42:54;8.10;;;4.90;;
72408;SDS011;60402;48.082;11.628;2022-07-23T07:45:21;7.30;;;4.68;;
72408;SDS011;60402;48.082;11.628;2022-07-23T07:47:48;8.13;;;4.55;;
72408;SDS011;60402;48.082;11.628;2022-07-23T07:50:13;7.50;;;4.55;;
72408;SDS011;60402;48.082;11.628;2022-07-23T07:52:39;8.57;;;4.07;;
72408;SDS011;60402;48.082;11.628;2022-07-23T07:55:05;7.85;;;4.53;;
72408;SDS011;60402;48.082;11.628;2022-07-23T07:57:32;8.18;;;4.45;;
72408;SDS011;60402;48.082;11.628;2022-07-23T07:59:58;8.55;;;4.60;;
72408;SDS011;60402;48.082;11.628;2022-07-23T08:02:23;7.72;;;4.72;;
72408;SDS011;60402;48.082;11.628;2022-07-23T08:04:48;7.60;;;4.75;;
72408;SDS011;60402;48.082;11.628;2022-07-23T08:07:14;7.60;;;4.53;;
72408;SDS011;60402;48.082;11.628;2022-07-23T08:09:39;8.10;;;4.63;;
72408;SDS011;60402;48.082;11.628;2022-07-23T08:12:05;8.70;;;4.47;;
72408;SDS011;60402;48.082;11.628;2022-07-23T08:14:30;8.23;;;4.70;;
72408;SDS011;60402;48.082;11.628;2022-07-23T08:16:56;8.30;;;4.80;;
72408;SDS011;60402;48.082;11.628;2022-07-23T08:19:21;9.15;;;4.90;;
72408;SDS011;60402;48.082;11.628;2022-07-23T08:21:47;8.48;;;4.80;;
72408;SDS011;60402;48.082;11.628;2022-07-23T08:24:12;7.70;;;4.57;;
72408;SDS011;60402;48.082;11.628;2022-07-23T08:26:37;9.02;;;5.10;;
72408;SDS011;60402;48.082;11.628;2022-07-23T08:29:03;7.97;;;4.63;;
72408;SDS011;60402;48.082;11.628;2022-07-23T08:31:28;7.18;;;4.82;;
72408;SDS011;60402;48.082;11.628;2022-07-23T08:33:53;8.52;;;4.95;;
72408;SDS011;60402;48.082;11.628;2022-07-23T08:36:20;8.32;;;4.55;;
72408;SDS011;60402;48.082;11.628;2022-07-23T08:38:45;9.95;;;4.75;;
72408;SDS011;60402;48.082;11.628;2022-07-23T08:41:10;8.18;;;4.70;;
72408;SDS011;60402;48.082;11.628;2022-07-23T08:43:36;8.10;;;4.88;;
72408;SDS011;60402;48.082;11.628;2022-07-23T08:46:02;9.10;;;4.57;;
72408;SDS011;60402;48.082;11.628;2022-07-23T08:48:29;7.05;;;4.35;;
72408;SDS011;60402;48.082;11.628;2022-07-23T08:50:57;7.55;;;4.43;;
72408;SDS011;60402;48.082;11.628;2022-07-23T08:53:25;8.52;;;4.43;;
72408;SDS011;60402;48.082;11.628;2022-07-23T08:55:53;10.32;;;4.22;;
72408;SDS011;60402;48.082;11.628;2022-07-23T08:58:21;8.57;;;4.55;;
72408;SDS011;60402;48.082;11.628;2022-07-23T09:00:47;8.63;;;4.18;;
72408;SDS011;60402;48.082;11.628;2022-07-23T09:03:23;10.98;;;4.90;;
72408;SDS011;60402;48.082;11.628;2022-07-23T09:05:50;7.72;;;4.63;;
72408;SDS011;60402;48.082;11.628;2022-07-23T09:08:34;9.35;;;4.50;;
72408;SDS011;60402;48.082;11.628;2022-07-23T09:11:00;7.07;;;3.80;;
72408;SDS011;60402;48.082;11.628;2022-07-23T09:18:32;6.75;;;4.25;;
72408;SDS011;60402;48.082;11.628;2022-07-23T09:21:09;7.22;;;3.88;;
72408;SDS011;60402;48.082;11.628;2022-07-23T09:23:40;7.75;;;3.95;;
72408;SDS011;60402;48.082;11.628;2022-07-23T09:26:20;6.93;;;4.10;;
72408;SDS011;60402;48.082;11.628;2022-07-23T09:28:52;8.43;;;4.13;;
72408;SDS011;60402;48.082;11.628;2022-07-23T09:31:45;6.90;;;4.03;;
72408;SDS011;60402;48.082;11.628;2022-07-23T09:34:12;6.95;;;4.10;;
72408;SDS011;60402;48.082;11.628;2022-07-23T09:36:41;6.55;;;3.75;;
72408;SDS011;60402;48.082;11.628;2022-07-23T09:39:07;8.02;;;4.30;;
72408;SDS011;60402;48.082;11.628;2022-07-23T09:41:40;6.97;;;4.18;;
72408;SDS011;60402;48.082;11.628;2022-07-23T09:44:13;7.10;;;4.10;;
72408;SDS011;60402;48.082;11.628;2022-07-23T09:46:44;6.57;;;4.03;;
72408;SDS011;60402;48.082;11.628;2022-07-23T09:49:14;6.78;;;3.97;;
72408;SDS011;60402;48.082;11.628;2022-07-23T09:51:45;6.45;;;3.85;;
72408;SDS011;60402;48.082;11.628;2022-07-23T09:54:26;7.75;;;4.07;;
72408;SDS011;60402;48.082;11.628;2022-07-23T09:56:53;6.20;;;3.80;;
72408;SDS011;60402;48.082;11.628;2022-07-23T09:59:21;7.05;;;4.28;;
72408;SDS011;60402;48.082;11.628;2022-07-23T10:01:48;6.90;;;3.83;;
72408;SDS011;60402;48.082;11.628;2022-07-23T10:06:43;6.55;;;3.78;;
72408;SDS011;60402;48.082;11.628;2022-07-23T10:09:09;6.10;;;3.35;;
72408;SDS011;60402;48.082;11.628;2022-07-23T10:14:03;6.68;;;3.45;;
72408;SDS011;60402;48.082;11.628;2022-07-23T10:16:30;8.18;;;4.07;;
72408;SDS011;60402;48.082;11.628;2022-07-23T10:18:55;6.85;;;3.75;;
72408;SDS011;60402;48.082;11.628;2022-07-23T10:24:24;6.80;;;3.50;;
72408;SDS011;60402;48.082;11.628;2022-07-23T10:27:08;6.05;;;3.30;;
72408;SDS011;60402;48.082;11.628;2022-07-23T10:32:17;6.03;;;3.10;;
72408;SDS011;60402;48.082;11.628;2022-07-23T10:38:03;6.35;;;3.47;;
72408;SDS011;60402;48.082;11.628;2022-07-23T10:40:35;6.18;;;3.13;;
72408;SDS011;60402;48.082;11.628;2022-07-23T10:43:01;5.93;;;3.25;;
72408;SDS011;60402;48.082;11.628;2022-07-23T10:45:27;5.88;;;3.40;;
72408;SDS011;60402;48.082;11.628;2022-07-23T10:48:14;6.47;;;3.28;;
72408;SDS011;60402;48.082;11.628;2022-07-23T10:50:40;7.25;;;3.60;;
72408;SDS011;60402;48.082;11.628;2022-07-23T10:58:03;6.47;;;3.20;;
72408;SDS011;60402;48.082;11.628;2022-07-23T11:00:30;5.78;;;3.28;;
72408;SDS011;60402;48.082;11.628;2022-07-23T11:03:00;6.68;;;3.30;;
72408;SDS011;60402;48.082;11.628;2022-07-23T11:05:44;5.57;;;3.25;;
72408;SDS011;60402;48.082;11.628;2022-07-23T11:08:12;6.50;;;3.22;;
72408;SDS011;60402;48.082;11.628;2022-07-23T11:10:44;5.93;;;3.28;;
72408;SDS011;60402;48.082;11.628;2022-07-23T11:13:40;5.95;;;3.30;;
72408;SDS011;60402;48.082;11.628;2022-07-23T11:16:14;6.03;;;3.50;;
72408;SDS011;60402;48.082;11.628;2022-07-23T11:31:53;6.50;;;3.47;;
72408;SDS011;60402;48.082;11.628;2022-07-23T11:34:33;7.25;;;4.00;;
72408;SDS011;60402;48.082;11.628;2022-07-23T11:37:02;6.65;;;3.85;;
72408;SDS011;60402;48.082;11.628;2022-07-23T11:39:29;6.82;;;3.92;;
72408;SDS011;60402;48.082;11.628;2022-07-23T11:41:56;9.15;;;3.75;;
72408;SDS011;60402;48.082;11.628;2022-07-23T11:44:26;6.63;;;3.53;;
72408;SDS011;60402;48.082;11.628;2022-07-23T11:46:57;7.35;;;3.90;;
72408;SDS011;60402;48.082;11.628;2022-07-23T11:49:27;8.18;;;3.88;;
72408;SDS011;60402;48.082;11.628;2022-07-23T11:52:03;7.18;;;4.20;;
72408;SDS011;60402;48.082;11.628;2022-07-23T11:54:36;7.32;;;3.78;;
72408;SDS011;60402;48.082;11.628;2022-07-23T11:57:12;6.93;;;4.10;;
72408;SDS011;60402;48.082;11.628;2022-07-23T11:59:37;8.57;;;3.90;;
72408;SDS011;60402;48.082;11.628;2022-07-23T12:02:04;6.88;;;4.00;;
72408;SDS011;60402;48.082;11.628;2022-07-23T12:04:40;6.88;;;3.80;;
72408;SDS011;60402;48.082;11.628;2022-07-23T12:09:53;6.40;;;3.80;;
72408;SDS011;60402;48.082;11.628;2022-07-23T12:12:19;7.70;;;4.43;;
72408;SDS011;60402;48.082;11.628;2022-07-23T12:14:51;7.15;;;3.90;;
72408;SDS011;60402;48.082;11.628;2022-07-23T12:17:17;7.40;;;4.10;;
72408;SDS011;60402;48.082;11.628;2022-07-23T12:19:43;6.80;;;3.75;;
72408;SDS011;60402;48.082;11.628;2022-07-23T12:22:09;6.88;;;3.80;;
72408;SDS011;60402;48.082;11.628;2022-07-23T12:27:22;7.00;;;3.75;;
72408;SDS011;60402;48.082;11.628;2022-07-23T12:29:49;7.32;;;4.10;;
72408;SDS011;60402;48.082;11.628;2022-07-23T12:32:27;6.95;;;3.72;;
72408;SDS011;60402;48.082;11.628;2022-07-23T12:35:06;6.53;;;3.97;;
72408;SDS011;60402;48.082;11.628;2022-07-23T12:37:33;6.43;;;3.58;;
72408;SDS011;60402;48.082;11.628;2022-07-23T12:42:51;7.90;;;3.92;;
72408;SDS011;60402;48.082;11.628;2022-07-23T12:45:21;6.53;;;4.03;;
72408;SDS011;60402;48.082;11.628;2022-07-23T12:47:53;6.85;;;3.63;;
72408;SDS011;60402;48.082;11.628;2022-07-23T12:50:31;8.05;;;4.13;;
72408;SDS011;60402;48.082;11.628;2022-07-23T12:53:04;6.90;;;4.10;;
72408;SDS011;60402;48.082;11.628;2022-07-23T12:55:40;6.80;;;3.78;;
72408;SDS011;60402;48.082;11.628;2022-07-23T12:58:16;7.97;;;4.00;;
72408;SDS011;60402;48.082;11.628;2022-07-23T13:00:53;7.18;;;4.18;;
72408;SDS011;60402;48.082;11.628;2022-07-23T13:03:34;7.28;;;4.13;;
72408;SDS011;60402;48.082;11.628;2022-07-23T13:06:00;6.80;;;3.95;;
72408;SDS011;60402;48.082;11.628;2022-07-23T13:08:29;8.55;;;3.72;;
72408;SDS011;60402;48.082;11.628;2022-07-23T13:10:56;7.28;;;3.90;;
72408;SDS011;60402;48.082;11.628;2022-07-23T13:13:23;7.43;;;3.80;;
72408;SDS011;60402;48.082;11.628;2022-07-23T13:15:50;8.10;;;4.10;;
72408;SDS011;60402;48.082;11.628;2022-07-23T13:18:16;6.93;;;3.92;;
72408;SDS011;60402;48.082;11.628;2022-07-23T13:20:43;7.22;;;4.13;;
72408;SDS011;60402;48.082;11.628;2022-07-23T13:23:09;6.75;;;4.00;;
72408;SDS011;60402;48.082;11.628;2022-07-23T13:25:34;6.95;;;4.22;;
72408;SDS011;60402;48.082;11.628;2022-07-23T13:28:00;7.90;;;4.13;;
72408;SDS011;60402;48.082;11.628;2022-07-23T13:30:26;7.57;;;3.88;;
72408;SDS011;60402;48.082;11.628;2022-07-23T13:32:51;6.45;;;3.72;;
72408;SDS011;60402;48.082;11.628;2022-07-23T13:35:17;6.30;;;3.70;;
72408;SDS011;60402;48.082;11.628;2022-07-23T13:37:42;8.15;;;3.83;;
72408;SDS011;60402;48.082;11.628;2022-07-23T13:40:08;7.78;;;3.67;;
72408;SDS011;60402;48.082;11.628;2022-07-23T13:42:33;7.30;;;3.70;;
72408;SDS011;60402;48.082;11.628;2022-07-23T13:44:59;6.97;;;3.70;;
72408;SDS011;60402;48.082;11.628;2022-07-23T13:47:24;6.53;;;3.50;;
72408;SDS011;60402;48.082;11.628;2022-07-23T13:49:50;7.40;;;3.72;;
72408;SDS011;60402;48.082;11.628;2022-07-23T13:52:15;8.65;;;3.90;;
72408;SDS011;60402;48.082;11.628;2022-07-23T13:54:40;6.50;;;3.30;;
72408;SDS011;60402;48.082;11.628;2022-07-23T13:57:06;6.85;;;3.60;;
72408;SDS011;60402;48.082;11.628;2022-07-23T13:59:31;6.30;;;3.72;;
72408;SDS011;60402;48.082;11.628;2022-07-23T14:01:57;7.35;;;3.78;;
72408;SDS011;60402;48.082;11.628;2022-07-23T14:04:22;7.45;;;4.10;;
72408;SDS011;60402;48.082;11.628;2022-07-23T14:06:47;9.45;;;3.70;;
72408;SDS011;60402;48.082;11.628;2022-07-23T14:09:13;8.90;;;3.67;;
72408;SDS011;60402;48.082;11.628;2022-07-23T14:11:38;6.82;;;3.70;;
72408;SDS011;60402;48.082;11.628;2022-07-23T14:14:04;7.70;;;3.83;;
72408;SDS011;60402;48.082;11.628;2022-07-23T14:16:29;6.22;;;3.35;;
72408;SDS011;60402;48.082;11.628;2022-07-23T14:18:55;7.03;;;4.00;;
72408;SDS011;60402;48.082;11.628;2022-07-23T14:21:20;7.50;;;3.97;;
72408;SDS011;60402;48.082;11.628;2022-07-23T14:23:46;7.05;;;3.78;;
72408;SDS011;60402;48.082;11.628;2022-07-23T14:26:12;7.60;;;4.10;;
72408;SDS011;60402;48.082;11.628;2022-07-23T14:28:37;6.47;;;3.60;;
72408;SDS011;60402;48.082;11.628;2022-07-23T14:31:02;7.18;;;4.30;;
72408;SDS011;60402;48.082;11.628;2022-07-23T14:33:28;6.38;;;4.10;;
72408;SDS011;60402;48.082;11.628;2022-07-23T14:35:53;6.30;;;3.72;;
72408;SDS011;60402;48.082;11.628;2022-07-23T14:38:18;6.93;;;3.83;;
72408;SDS011;60402;48.082;11.628;2022-07-23T14:40:44;7.43;;;4.00;;
72408;SDS011;60402;48.082;11.628;2022-07-23T14:43:09;7.05;;;4.60;;
72408;SDS011;60402;48.082;11.628;2022-07-23T14:45:35;7.97;;;4.40;;
72408;SDS011;60402;48.082;11.628;2022-07-23T14:48:00;6.78;;;4.25;;
72408;SDS011;60402;48.082;11.628;2022-07-23T14:50:27;7.43;;;4.78;;
72408;SDS011;60402;48.082;11.628;2022-07-23T14:52:53;7.30;;;4.40;;
72408;SDS011;60402;48.082;11.628;2022-07-23T14:55:19;7.10;;;4.25;;
72408;SDS011;60402;48.082;11.628;2022-07-23T14:57:44;7.68;;;4.70;;
72408;SDS011;60402;48.082;11.628;2022-07-23T15:00:10;7.40;;;4.47;;
72408;SDS011;60402;48.082;11.628;2022-07-23T15:02:36;7.43;;;4.85;;
72408;SDS011;60402;48.082;11.628;2022-07-23T15:05:01;7.35;;;4.35;;
72408;SDS011;60402;48.082;11.628;2022-07-23T15:07:27;6.82;;;3.92;;
72408;SDS011;60402;48.082;11.628;2022-07-23T15:09:54;8.27;;;4.82;;
72408;SDS011;60402;48.082;11.628;2022-07-23T15:12:20;8.05;;;4.53;;
72408;SDS011;60402;48.082;11.628;2022-07-23T15:14:45;7.75;;;4.75;;
72408;SDS011;60402;48.082;11.628;2022-07-23T15:17:10;8.30;;;4.68;;